Time;durP1;ratioP1;P1;durP2;ratioP2;P2;SDS_P1;SDS_P2;PMS_P1;PMS_P2;Temp;Humidity;BMP_temperature;BMP_pressure;BME280_temperature;BME280_humidity;BME280_pressure;Samples;Min_cycle;Max_cycle;Signal;HPM_P1;HPM_P2
2023/05/19 00:00:13;;;;;;;10.47;6.00;;;;;;;-143.21;91.04;72692.91;5111840;28;20219;-77
2023/05/19 00:02:42;;;;;;;7.87;6.10;;;;;;;-143.21;90.97;72690.94;5110571;28;20745;-77
2023/05/19 00:05:11;;;;;;;9.40;6.63;;;;;;;-143.21;91.23;72688.94;5110242;28;20240;-77
2023/05/19 00:07:39;;;;;;;11.60;6.80;;;;;;;-143.21;91.10;72683.00;5110113;28;20204;-78
2023/05/19 00:10:07;;;;;;;11.90;6.43;;;;;;;-143.21;90.89;72675.06;5111001;27;20308;-79
2023/05/19 00:12:36;;;;;;;10.17;7.07;;;;;;;-143.21;90.34;72663.16;5110904;28;20732;-78
2023/05/19 00:15:04;;;;;;;12.03;7.10;;;;;;;-143.21;90.03;72657.22;5111556;28;20199;-79
2023/05/19 00:17:33;;;;;;;10.90;7.50;;;;;;;-143.21;90.29;72667.13;5111313;28;20228;-78
2023/05/19 00:20:00;;;;;;;14.60;8.73;;;;;;;-143.21;90.22;72661.19;5110995;28;20296;-77
2023/05/19 00:22:27;;;;;;;11.57;8.80;;;;;;;-143.21;90.62;72671.09;5110478;28;20207;-76
2023/05/19 00:24:53;;;;;;;10.73;8.17;;;;;;;-143.21;90.64;72692.91;5110303;28;20210;-77
2023/05/19 00:27:20;;;;;;;10.80;7.40;;;;;;;-143.21;90.82;72720.69;5110385;28;20200;-76
2023/05/19 00:29:48;;;;;;;10.90;7.07;;;;;;;-143.21;92.81;72732.59;5110394;28;20283;-76
2023/05/19 00:32:15;;;;;;;11.60;7.33;;;;;;;-143.21;94.18;72734.56;5110670;28;20208;-76
2023/05/19 00:34:42;;;;;;;10.10;7.77;;;;;;;-143.21;94.27;72724.66;5110412;28;20737;-77
2023/05/19 00:37:09;;;;;;;12.93;7.87;;;;;;;-143.21;94.33;72710.78;5110205;28;20231;-76
2023/05/19 00:39:35;;;;;;;12.30;8.10;;;;;;;-143.21;93.80;72708.78;5110445;28;20212;-77
2023/05/19 00:42:04;;;;;;;11.27;8.13;;;;;;;-143.21;94.59;72718.69;5110563;28;20207;-77
2023/05/19 00:44:31;;;;;;;12.30;9.07;;;;;;;-143.21;94.80;72722.66;5109625;28;20644;-76
2023/05/19 00:46:59;;;;;;;12.10;9.37;;;;;;;-143.21;95.25;72728.63;5108944;28;20203;-77
2023/05/19 00:49:26;;;;;;;13.47;8.73;;;;;;;-143.21;94.59;72714.72;5109855;28;20203;-76
2023/05/19 00:51:53;;;;;;;13.70;8.57;;;;;;;-143.21;93.75;72704.81;5109786;28;20200;-76
2023/05/19 00:54:21;;;;;;;11.63;8.47;;;;;;;-143.21;93.42;72700.84;5106636;28;20199;-77
2023/05/19 00:56:48;;;;;;;11.27;8.40;;;;;;;-143.21;93.75;72708.78;5107109;28;20314;-77
2023/05/19 00:59:15;;;;;;;10.80;8.27;;;;;;;-143.21;93.47;72720.69;5106382;28;20207;-78
2023/05/19 01:01:44;;;;;;;10.03;7.83;;;;;;;-143.21;93.64;72714.72;5110444;28;20208;-78
2023/05/19 01:04:15;;;;;;;12.77;8.00;;;;;;;-143.21;93.41;72716.72;5109696;28;20249;-77
2023/05/19 01:06:42;;;;;;;12.77;8.27;;;;;;;-143.21;93.22;72718.69;5109806;28;20586;-77
2023/05/19 01:09:09;;;;;;;12.37;8.73;;;;;;;-143.21;93.99;72738.53;5109502;28;20204;-77
2023/05/19 01:11:36;;;;;;;14.83;8.97;;;;;;;-143.21;94.43;72744.50;5109643;28;20736;-77
2023/05/19 01:14:02;;;;;;;12.33;8.90;;;;;;;-143.21;94.08;72744.50;5109891;28;20723;-78
2023/05/19 01:16:35;;;;;;;12.37;8.13;;;;;;;-143.21;94.37;72746.47;5110131;28;20228;-78
2023/05/19 01:19:11;;;;;;;11.97;8.90;;;;;;;-143.21;95.33;72774.25;5110336;28;20239;-78
2023/05/19 01:22:12;;;;;;;12.90;9.77;;;;;;;-143.21;96.15;72784.16;5110705;28;20226;-78
2023/05/19 01:25:21;;;;;;;11.80;9.40;;;;;;;-143.21;96.49;72788.13;5108834;28;20239;-78
2023/05/19 01:28:25;;;;;;;13.90;9.37;;;;;;;-143.21;96.84;72794.06;5105000;28;20245;-78
2023/05/19 01:30:55;;;;;;;12.60;9.13;;;;;;;-143.21;97.30;72796.06;5107268;28;20666;-78
2023/05/19 01:33:23;;;;;;;19.33;12.90;;;;;;;-143.21;97.22;72798.03;5110404;28;20203;-78
2023/05/19 01:35:52;;;;;;;54.33;35.73;;;;;;;-143.21;97.12;72786.13;5110029;28;20203;-78
2023/05/19 01:38:20;;;;;;;41.50;26.30;;;;;;;-143.21;96.25;72788.13;5110364;28;20207;-78
2023/05/19 01:40:49;;;;;;;19.70;14.10;;;;;;;-143.21;95.99;72782.16;5107469;28;20199;-78
2023/05/19 01:43:18;;;;;;;17.70;11.63;;;;;;;-143.21;96.13;72790.09;5107029;28;20589;-78
2023/05/19 01:45:46;;;;;;;22.53;13.63;;;;;;;-143.21;95.65;72819.84;5110378;28;20253;-78
2023/05/19 01:48:15;;;;;;;29.90;17.13;;;;;;;-143.21;95.85;72851.59;5106208;28;20203;-78
2023/05/19 01:50:42;;;;;;;26.70;17.80;;;;;;;-143.21;97.84;72859.53;5109601;28;20200;-79
2023/05/19 01:53:09;;;;;;;22.60;15.93;;;;;;;-143.21;98.74;72843.66;5110121;28;20208;-79
2023/05/19 01:55:50;;;;;;;20.87;14.20;;;;;;;-143.21;99.82;72843.66;5109594;28;20319;-77
2023/05/19 01:58:22;;;;;;;16.30;11.93;;;;;;;-143.21;100.00;72851.59;5110202;28;20651;-77
2023/05/19 02:00:53;;;;;;;18.67;10.63;;;;;;;-143.21;99.52;72851.59;5110466;28;20207;-77
2023/05/19 02:03:48;;;;;;;14.17;10.63;;;;;;;-143.21;98.79;72835.72;5111098;28;20242;-78
2023/05/19 02:06:30;;;;;;;14.90;10.03;;;;;;;-143.21;98.43;72833.75;5101507;28;20208;-78
2023/05/19 02:09:02;;;;;;;13.97;10.47;;;;;;;-143.21;98.09;72831.75;5111954;28;20200;-78
2023/05/19 02:11:36;;;;;;;13.20;9.63;;;;;;;-143.21;97.93;72831.75;5113909;27;20208;-78
2023/05/19 02:14:08;;;;;;;17.13;10.03;;;;;;;-143.21;97.22;72835.72;5114312;28;20282;-78
2023/05/19 02:16:37;;;;;;;16.23;10.10;;;;;;;-143.21;97.38;72839.69;5113742;28;20342;-78
2023/05/19 02:19:05;;;;;;;19.67;10.20;;;;;;;-143.21;98.22;72843.66;5113253;28;20292;-78
2023/05/19 02:21:32;;;;;;;19.63;10.83;;;;;;;-143.21;97.92;72853.56;5113541;28;20208;-78
2023/05/19 02:23:58;;;;;;;17.97;12.13;;;;;;;-143.21;98.89;72855.56;5113272;28;20256;-78
2023/05/19 02:26:25;;;;;;;16.27;10.83;;;;;;;-143.21;98.90;72849.59;5113188;28;20196;-78
2023/05/19 02:28:52;;;;;;;15.77;10.83;;;;;;;-143.21;98.60;72839.69;5112822;28;20738;-77
2023/05/19 02:31:19;;;;;;;18.17;11.30;;;;;;;-143.21;98.98;72835.72;5112750;28;20203;-77
2023/05/19 02:33:46;;;;;;;16.37;10.50;;;;;;;-143.21;98.44;72829.78;5112801;28;20212;-77
2023/05/19 02:36:14;;;;;;;16.47;10.47;;;;;;;-143.21;97.35;72819.84;5112590;28;20204;-77
2023/05/19 02:38:41;;;;;;;17.80;10.67;;;;;;;-143.21;96.50;72815.88;5113037;28;20719;-77
2023/05/19 02:41:07;;;;;;;16.87;10.93;;;;;;;-143.21;95.92;72827.78;5112916;28;20208;-76
2023/05/19 02:43:34;;;;;;;13.40;9.70;;;;;;;-143.21;96.33;72835.72;5112442;28;20211;-76
2023/05/19 02:46:01;;;;;;;17.47;11.27;;;;;;;-143.21;96.80;72843.66;5112168;28;20216;-77
2023/05/19 02:48:27;;;;;;;14.83;10.23;;;;;;;-143.21;97.06;72831.75;5111140;28;20200;-76
2023/05/19 02:50:54;;;;;;;16.00;10.87;;;;;;;-143.21;96.49;72833.75;5111948;28;20207;-76
2023/05/19 02:53:22;;;;;;;15.67;10.50;;;;;;;-143.21;95.93;72833.75;5111863;28;20215;-76
2023/05/19 02:55:50;;;;;;;20.47;11.47;;;;;;;-143.21;95.56;72827.78;5109389;28;20203;-76
2023/05/19 02:58:17;;;;;;;14.57;10.80;;;;;;;-143.21;95.36;72825.81;5112543;28;20227;-76
2023/05/19 03:00:45;;;;;;;17.50;11.40;;;;;;;-143.21;95.44;72827.78;5108644;28;20203;-77
2023/05/19 03:03:12;;;;;;;16.97;11.03;;;;;;;-143.21;96.01;72847.63;5112600;28;20620;-77
2023/05/19 03:05:39;;;;;;;17.63;11.97;;;;;;;-143.21;95.54;72859.53;5112110;28;20214;-77
2023/05/19 03:08:06;;;;;;;16.67;11.10;;;;;;;-143.21;95.29;72893.25;5112619;28;20347;-77
2023/05/19 03:10:34;;;;;;;17.17;11.63;;;;;;;-143.21;96.54;72899.19;5110988;28;20211;-77
2023/05/19 03:13:01;;;;;;;22.23;12.20;;;;;;;-143.21;98.07;72895.22;5111943;28;20674;-77
2023/05/19 03:15:28;;;;;;;21.13;13.10;;;;;;;-143.21;99.27;72889.28;5111677;28;20555;-77
2023/05/19 03:17:55;;;;;;;20.50;12.83;;;;;;;-143.21;99.05;72881.34;5111430;28;20232;-77
2023/05/19 03:20:22;;;;;;;18.77;13.20;;;;;;;-143.21;98.90;72867.47;5112179;28;20206;-78
2023/05/19 03:22:48;;;;;;;21.27;13.93;;;;;;;-143.21;98.67;72847.63;5112556;28;20634;-78
2023/05/19 03:25:15;;;;;;;19.60;13.67;;;;;;;-143.21;97.90;72851.59;5109209;28;20658;-78
2023/05/19 03:27:44;;;;;;;20.63;14.30;;;;;;;-143.21;97.69;72841.69;5112956;28;20207;-78
2023/05/19 03:30:12;;;;;;;19.23;13.73;;;;;;;-143.21;97.02;72839.69;5112163;28;20207;-78
2023/05/19 03:32:38;;;;;;;18.37;12.80;;;;;;;-143.21;96.81;72829.78;5111932;28;20216;-78
2023/05/19 03:35:06;;;;;;;23.00;13.97;;;;;;;-143.21;96.71;72825.81;5112182;28;20582;-78
2023/05/19 03:37:33;;;;;;;24.80;13.47;;;;;;;-143.21;96.32;72815.88;5112043;28;20321;-78
2023/05/19 03:40:00;;;;;;;21.20;12.90;;;;;;;-143.21;96.01;72811.94;5111566;28;20203;-77
2023/05/19 03:42:27;;;;;;;18.93;12.83;;;;;;;-143.21;95.31;72807.97;5112146;28;20196;-77
2023/05/19 03:44:55;;;;;;;18.47;12.73;;;;;;;-143.21;95.07;72809.94;5112203;28;20192;-78
2023/05/19 03:47:21;;;;;;;17.63;12.07;;;;;;;-143.21;94.53;72805.97;5111038;28;20633;-78
2023/05/19 03:49:48;;;;;;;23.97;13.13;;;;;;;-143.21;94.59;72805.97;5111643;27;20204;-79
2023/05/19 03:52:15;;;;;;;23.10;12.73;;;;;;;-143.21;94.69;72807.97;5107942;28;20549;-78
2023/05/19 03:54:42;;;;;;;20.57;13.13;;;;;;;-143.21;94.80;72804.00;5111171;28;20269;-79
2023/05/19 03:57:09;;;;;;;18.73;12.47;;;;;;;-143.21;94.39;72800.03;5110536;28;20232;-80
2023/05/19 03:59:37;;;;;;;22.63;13.37;;;;;;;-143.21;94.53;72809.94;5110563;28;20367;-79
2023/05/19 04:02:05;;;;;;;20.73;13.37;;;;;;;-143.21;94.17;72802.00;5110632;28;20630;-79
2023/05/19 04:04:32;;;;;;;19.73;13.00;;;;;;;-143.21;93.99;72800.03;5110971;28;20219;-79
2023/05/19 04:06:58;;;;;;;19.73;12.83;;;;;;;-143.21;93.70;72796.06;5111247;28;20211;-79
2023/05/19 04:09:25;;;;;;;19.70;13.10;;;;;;;-143.21;93.88;72804.00;5110841;28;20253;-79
2023/05/19 04:11:52;;;;;;;19.80;13.33;;;;;;;-143.21;94.39;72807.97;5110750;28;20277;-79
2023/05/19 04:14:20;;;;;;;22.20;14.57;;;;;;;-143.21;94.75;72798.03;5110942;28;20658;-79
2023/05/19 04:16:52;;;;;;;19.27;13.03;;;;;;;-143.21;94.51;72802.00;5111472;28;20564;-80
2023/05/19 04:19:20;;;;;;;19.93;13.67;;;;;;;-143.21;94.99;72800.03;5107959;28;20239;-80
2023/05/19 04:21:47;;;;;;;20.80;13.27;;;;;;;-143.21;93.83;72790.09;5110686;28;20265;-79
2023/05/19 04:24:14;;;;;;;22.53;13.10;;;;;;;-143.21;93.72;72815.88;5110550;28;20204;-79
2023/05/19 04:26:44;;;;;;;18.87;12.67;;;;;;;-143.21;96.25;72813.91;5110597;28;20639;-79
2023/05/19 04:29:12;;;;;;;21.10;12.93;;;;;;;-143.21;97.36;72823.81;5110399;28;20192;-79
2023/05/19 04:31:39;;;;;;;22.40;13.37;;;;;;;-143.21;97.56;72811.94;5110511;28;20291;-79
2023/05/19 04:34:08;;;;;;;21.33;14.33;;;;;;;-143.21;97.09;72802.00;5110297;28;21667;-79
2023/05/19 04:36:37;;;;;;;17.43;12.27;;;;;;;-143.21;96.86;72788.13;5110646;28;20214;-79
2023/05/19 04:39:06;;;;;;;18.57;12.57;;;;;;;-143.21;95.99;72786.13;5110131;28;20637;-79
2023/05/19 04:41:33;;;;;;;18.30;12.33;;;;;;;-143.21;94.96;72776.22;5110566;28;20238;-79
2023/05/19 04:44:00;;;;;;;18.43;12.80;;;;;;;-143.21;95.17;72784.16;5110434;28;20214;-79
2023/05/19 04:46:29;;;;;;;23.13;12.97;;;;;;;-143.21;95.09;72774.25;5110298;28;20203;-79
2023/05/19 04:48:55;;;;;;;19.80;12.57;;;;;;;-143.21;95.58;72774.25;5110131;28;20200;-79
2023/05/19 04:51:27;;;;;;;20.03;12.27;;;;;;;-143.21;94.93;72764.31;5110435;28;20204;-79
2023/05/19 04:53:55;;;;;;;21.20;12.87;;;;;;;-143.21;95.59;72776.22;5110133;28;20229;-79
2023/05/19 04:56:22;;;;;;;18.93;12.33;;;;;;;-143.21;95.42;72772.25;5110635;28;20200;-79
2023/05/19 04:58:49;;;;;;;19.60;12.73;;;;;;;-143.21;95.85;72786.13;5110485;28;20228;-78
2023/05/19 05:01:25;;;;;;;19.10;12.67;;;;;;;-143.21;96.05;72782.16;5110285;28;20249;-79
2023/05/19 05:03:54;;;;;;;18.17;12.53;;;;;;;-143.21;95.75;72770.28;5110195;28;20235;-78
2023/05/19 05:06:21;;;;;;;18.83;11.87;;;;;;;-143.21;95.40;72762.34;5108790;28;20290;-80
2023/05/19 05:08:48;;;;;;;18.73;12.50;;;;;;;-143.21;94.87;72752.41;5101433;28;20249;-78
2023/05/19 05:11:46;;;;;;;19.30;12.23;;;;;;;-143.21;94.88;72750.44;5107123;28;20313;-79
2023/05/19 05:14:14;;;;;;;20.93;12.50;;;;;;;-143.21;95.32;72740.53;5099769;28;20208;-78
2023/05/19 05:16:42;;;;;;;20.00;12.10;;;;;;;-143.21;94.95;72738.53;5106247;28;20202;-80
2023/05/19 05:19:09;;;;;;;21.67;12.87;;;;;;;-143.21;95.10;72728.63;5109091;28;20272;-84
2023/05/19 05:21:36;;;;;;;18.23;12.23;;;;;;;-143.21;95.30;72712.75;5110420;28;20273;-83
2023/05/19 05:24:04;;;;;;;18.73;12.20;;;;;;;-143.21;94.30;72702.84;5110549;28;20196;-84
2023/05/19 05:26:34;;;;;;;18.70;12.90;;;;;;;-143.21;93.99;72690.94;5110617;28;20374;-82
2023/05/19 05:29:01;;;;;;;20.20;12.17;;;;;;;-143.21;93.33;72683.00;5110424;28;20693;-85
2023/05/19 05:31:27;;;;;;;17.60;11.30;;;;;;;-143.21;91.94;72683.00;5110746;28;20200;-87
2023/05/19 05:33:54;;;;;;;18.47;12.10;;;;;;;-143.21;91.55;72688.94;5110117;28;20708;-83
2023/05/19 05:36:21;;;;;;;18.30;11.73;;;;;;;-143.21;92.75;72704.81;5110283;28;20204;-83
2023/05/19 05:38:48;;;;;;;15.67;10.73;;;;;;;-143.21;93.56;72708.78;5110117;28;20220;-83
2023/05/19 05:41:15;;;;;;;21.67;12.20;;;;;;;-143.21;93.75;72706.81;5107092;28;20282;-82
2023/05/19 05:43:43;;;;;;;19.53;12.30;;;;;;;-143.21;94.02;72694.91;5110412;28;20204;-84
2023/05/19 05:46:10;;;;;;;23.13;12.60;;;;;;;-143.21;93.95;72692.91;5106915;28;20200;-81
2023/05/19 05:48:38;;;;;;;18.67;11.93;;;;;;;-143.21;93.65;72685.00;5109802;28;20202;-80
2023/05/19 05:51:06;;;;;;;18.33;11.53;;;;;;;-143.21;92.96;72673.09;5110096;28;20196;-81
2023/05/19 05:53:35;;;;;;;17.67;10.97;;;;;;;-143.21;92.52;72665.16;5110198;28;20199;-81
2023/05/19 05:56:03;;;;;;;21.30;12.43;;;;;;;-143.21;92.52;72665.16;5109656;28;20339;-81
2023/05/19 05:58:31;;;;;;;17.57;11.33;;;;;;;-143.21;92.69;72653.25;5109539;28;20307;-81
2023/05/19 06:01:01;;;;;;;17.73;11.10;;;;;;;-143.21;92.15;72641.34;5109921;28;20282;-82
2023/05/19 06:03:27;;;;;;;17.60;11.70;;;;;;;-143.21;91.51;72633.41;5109962;28;20282;-82
2023/05/19 06:05:54;;;;;;;18.60;10.80;;;;;;;-143.21;91.85;72633.41;5110114;28;20204;-83
2023/05/19 06:08:21;;;;;;;17.13;10.93;;;;;;;-143.21;90.34;72621.53;5109721;28;20232;-81
2023/05/19 06:10:48;;;;;;;20.33;11.23;;;;;;;-143.21;90.24;72619.53;5110536;28;20211;-82
2023/05/19 06:13:20;;;;;;;17.97;12.00;;;;;;;-143.21;90.16;72609.63;5110821;28;20192;-82
2023/05/19 06:15:47;;;;;;;17.60;11.07;;;;;;;-143.21;89.16;72589.78;5106846;28;20192;-82
2023/05/19 06:18:16;;;;;;;19.57;11.10;;;;;;;-143.21;89.10;72583.84;5106385;28;20224;-82
2023/05/19 06:20:43;;;;;;;16.87;11.17;;;;;;;-143.21;89.08;72571.94;5110458;28;20279;-82
2023/05/19 06:23:09;;;;;;;16.07;11.13;;;;;;;-143.21;88.87;72565.97;5110921;28;20200;-84
2023/05/19 06:25:36;;;;;;;14.97;10.23;;;;;;;-143.21;88.38;72565.97;5110398;28;20309;-84
2023/05/19 06:28:03;;;;;;;16.70;11.10;;;;;;;-143.21;88.56;72565.97;5110677;28;20211;-83
2023/05/19 06:30:30;;;;;;;19.00;10.80;;;;;;;-143.21;88.14;72562.03;5110353;28;20196;-84
2023/05/19 06:32:57;;;;;;;13.97;9.83;;;;;;;-143.21;87.32;72554.09;5110343;28;20203;-83
2023/05/19 06:35:25;;;;;;;14.93;10.30;;;;;;;-143.21;87.15;72569.94;5108554;28;20192;-83
2023/05/19 06:37:51;;;;;;;16.33;10.20;;;;;;;-143.21;87.85;72565.97;5108126;28;20220;-78
2023/05/19 06:40:18;;;;;;;14.73;10.50;;;;;;;-143.21;87.33;72550.13;5107422;28;20260;-80
2023/05/19 06:42:45;;;;;;;18.90;10.40;;;;;;;-143.21;87.21;72548.13;5104200;28;20215;-79
2023/05/19 06:45:12;;;;;;;13.70;9.57;;;;;;;-143.21;86.69;72532.28;5107665;28;20643;-79
2023/05/19 06:47:41;;;;;;;14.87;8.97;;;;;;;-143.21;85.11;72522.34;5111337;28;20215;-79
2023/05/19 06:50:09;;;;;;;11.50;8.60;;;;;;;-143.21;83.62;72510.44;5110576;28;20208;-78
2023/05/19 06:52:37;;;;;;;14.67;8.30;;;;;;;-143.21;83.51;72506.50;5109910;28;20207;-81
2023/05/19 06:55:05;;;;;;;13.63;8.80;;;;;;;-143.21;83.25;72494.59;5110162;28;20200;-79
2023/05/19 06:57:32;;;;;;;11.10;8.30;;;;;;;-143.21;81.74;72486.66;5109128;28;20203;-77
2023/05/19 06:59:59;;;;;;;13.67;8.43;;;;;;;-143.21;82.43;72494.59;5109197;28;20200;-77
2023/05/19 07:02:25;;;;;;;11.70;7.80;;;;;;;-143.21;82.40;72498.56;5108784;28;20208;-76
2023/05/19 07:04:52;;;;;;;13.20;8.40;;;;;;;-143.21;81.47;72484.66;5109873;28;20208;-79
2023/05/19 07:07:19;;;;;;;14.60;8.30;;;;;;;-143.21;81.59;72470.78;5108465;28;20211;-78
2023/05/19 07:09:47;;;;;;;12.03;8.70;;;;;;;-143.21;81.97;72490.63;5109877;28;20195;-77
2023/05/19 07:12:14;;;;;;;13.47;8.23;;;;;;;-143.21;82.32;72512.44;5108261;28;20211;-77
2023/05/19 07:14:41;;;;;;;13.27;8.63;;;;;;;-143.21;83.73;72536.25;5109159;28;20220;-77
2023/05/19 07:17:08;;;;;;;17.53;8.73;;;;;;;-143.21;84.84;72522.34;5109527;28;20200;-78
2023/05/19 07:19:34;;;;;;;14.00;9.57;;;;;;;-143.21;84.80;72492.59;5109889;28;20232;-83
2023/05/19 07:22:01;;;;;;;13.70;9.03;;;;;;;-143.21;84.47;72460.88;5111461;28;20203;-83
2023/05/19 07:24:29;;;;;;;15.97;9.30;;;;;;;-143.21;83.87;72431.13;5111455;28;20207;-85
2023/05/19 07:26:57;;;;;;;14.47;8.27;;;;;;;-143.21;82.81;72399.41;5111023;28;20658;-86
2023/05/19 07:29:24;;;;;;;12.53;8.07;;;;;;;-143.21;80.10;72373.63;5111193;28;20239;-84
2023/05/19 07:31:52;;;;;;;14.07;8.40;;;;;;;-143.21;78.60;72359.72;5110096;28;20592;-87
2023/05/19 07:34:20;;;;;;;19.20;8.57;;;;;;;-143.21;78.13;72335.94;5110078;28;20196;-86
2023/05/19 07:36:47;;;;;;;12.73;8.63;;;;;;;-143.21;77.62;72316.09;5110149;28;20204;-86
2023/05/19 07:39:14;;;;;;;11.60;9.10;;;;;;;-143.21;76.06;72302.22;5112066;28;20228;-86
2023/05/19 07:41:41;;;;;;;17.67;10.03;;;;;;;-143.21;75.74;72296.28;5109785;28;20249;-86
2023/05/19 07:44:09;;;;;;;18.27;9.17;;;;;;;-143.21;74.93;72276.44;5110077;28;20200;-86
2023/05/19 07:46:36;;;;;;;12.73;8.60;;;;;;;-143.21;75.44;72258.59;5110132;28;20253;-86
2023/05/19 07:49:03;;;;;;;12.10;8.27;;;;;;;-143.21;74.46;72252.63;5110090;28;20203;-86
2023/05/19 07:51:30;;;;;;;13.43;8.53;;;;;;;-143.21;74.85;72246.69;5109861;28;20219;-85
2023/05/19 07:53:57;;;;;;;13.37;8.80;;;;;;;-143.21;74.33;72236.78;5108635;28;20274;-85
2023/05/19 07:56:24;;;;;;;12.07;8.43;;;;;;;-143.21;73.45;72218.94;5108834;28;20212;-86
2023/05/19 07:58:51;;;;;;;11.57;9.00;;;;;;;-143.21;71.47;72211.00;5110076;28;20658;-86
2023/05/19 08:01:20;;;;;;;12.83;8.47;;;;;;;-143.21;70.61;72203.06;5110933;28;20282;-84
2023/05/19 08:03:46;;;;;;;14.37;8.77;;;;;;;-143.21;70.51;72199.09;5110529;28;20241;-86
2023/05/19 08:06:13;;;;;;;12.90;8.20;;;;;;;-143.21;71.50;72205.03;5110630;28;20203;-86
2023/05/19 08:08:40;;;;;;;12.83;9.33;;;;;;;-143.21;71.09;72203.06;5109527;28;20200;-83
2023/05/19 08:11:07;;;;;;;12.57;8.80;;;;;;;-143.21;72.18;72199.09;5109912;28;20204;-84
2023/05/19 08:13:35;;;;;;;15.10;9.13;;;;;;;-143.21;73.17;72189.19;5111572;28;20207;-85
2023/05/19 08:16:01;;;;;;;14.37;9.33;;;;;;;-143.21;72.64;72181.25;5113387;28;20215;-86
2023/05/19 08:18:30;;;;;;;13.87;9.30;;;;;;;-143.21;72.33;72169.34;5110576;28;20228;-82
2023/05/19 08:20:58;;;;;;;16.93;9.83;;;;;;;-143.21;71.31;72161.41;5111530;28;20257;-82
2023/05/19 08:23:24;;;;;;;14.43;9.33;;;;;;;-143.21;71.28;72145.56;5110806;28;20595;-83
2023/05/19 08:25:51;;;;;;;12.10;9.00;;;;;;;-143.21;72.20;72141.59;5111744;28;20200;-85
2023/05/19 08:28:34;;;;;;;20.40;9.77;;;;;;;-143.21;71.54;72179.25;5112492;28;20198;-84
2023/05/19 08:31:01;;;;;;;17.70;9.60;;;;;;;-143.21;73.41;72216.94;5110914;28;20264;-83
2023/05/19 08:33:28;;;;;;;13.87;10.13;;;;;;;-143.21;74.33;72242.72;5111327;28;20196;-83
2023/05/19 08:35:57;;;;;;;15.33;10.27;;;;;;;-143.21;72.10;72224.88;5112589;28;20889;-84
2023/05/19 08:38:24;;;;;;;16.80;9.97;;;;;;;-143.21;72.82;72209.00;5112089;28;20291;-84
2023/05/19 08:40:51;;;;;;;16.60;9.93;;;;;;;-143.21;72.13;72189.19;5111898;28;20262;-82
2023/05/19 08:43:18;;;;;;;16.80;9.83;;;;;;;-143.21;70.54;72177.28;5111569;28;20200;-83
2023/05/19 08:45:46;;;;;;;18.07;10.43;;;;;;;-143.21;70.05;72157.44;5111886;28;20192;-84
2023/05/19 08:48:14;;;;;;;16.20;11.07;;;;;;;-143.21;69.74;72133.66;5111876;28;20638;-84
2023/05/19 08:50:43;;;;;;;18.03;10.70;;;;;;;-143.21;69.74;72115.81;5112535;28;20192;-82
2023/05/19 08:53:15;;;;;;;18.27;10.97;;;;;;;-143.21;70.73;72101.94;5111997;28;20295;-83
2023/05/19 08:55:47;;;;;;;14.23;10.30;;;;;;;-143.21;69.42;72086.06;5111872;28;20192;-85
2023/05/19 08:58:19;;;;;;;18.57;10.90;;;;;;;-143.21;68.71;72080.13;5111899;28;20275;-84
2023/05/19 09:00:48;;;;;;;21.33;10.83;;;;;;;-143.21;68.59;72066.22;5113445;28;20212;-84
2023/05/19 09:03:17;;;;;;;23.92;11.32;;;;;;;-143.21;67.96;72034.50;5104659;28;20203;-83
2023/05/19 09:05:44;;;;;;;17.50;10.73;;;;;;;-143.21;67.67;72020.63;5091279;28;20671;-83
2023/05/19 09:08:13;;;;;;;28.13;13.37;;;;;;;-143.21;67.77;71998.81;5107691;28;20196;-82
2023/05/19 09:10:40;;;;;;;28.98;14.95;;;;;;;-143.21;66.56;71982.94;5112482;28;20216;-83
2023/05/19 09:13:07;;;;;;;32.55;16.65;;;;;;;-143.21;67.13;71951.22;5112561;28;20666;-83
2023/05/19 09:15:35;;;;;;;14.30;9.60;;;;;;;-143.21;64.67;71937.34;5112304;28;20257;-83
2023/05/19 09:18:09;;;;;;;21.77;12.35;;;;;;;-143.21;65.43;71921.47;5111753;28;20733;-83
2023/05/19 09:20:41;;;;;;;29.52;15.68;;;;;;;-143.21;67.39;71903.63;5111876;28;20219;-83
2023/05/19 09:23:14;;;;;;;33.42;16.92;;;;;;;-143.21;66.25;71891.72;5102811;28;20202;-81
2023/05/19 09:25:47;;;;;;;48.00;22.75;;;;;;;-143.21;66.32;71865.97;5104777;28;20193;-83
2023/05/19 09:28:14;;;;;;;26.40;12.93;;;;;;;-143.21;65.11;71842.16;5110869;28;20227;-84
2023/05/19 09:30:41;;;;;;;49.95;20.65;;;;;;;-143.21;65.00;71836.22;5111918;28;20225;-85
2023/05/19 09:33:08;;;;;;;31.95;15.23;;;;;;;-143.21;64.29;71824.31;5112082;28;20655;-84
2023/05/19 09:35:36;;;;;;;39.03;18.45;;;;;;;-143.21;65.29;71814.41;5112783;28;20200;-88
2023/05/19 09:38:02;;;;;;;38.70;18.80;;;;;;;-143.21;65.07;71858.03;5112686;28;20282;-85
2023/05/19 09:40:32;;;;;;;19.80;11.57;;;;;;;-143.21;66.09;71885.78;5112907;28;20219;-78
2023/05/19 09:42:58;;;;;;;17.40;11.05;;;;;;;-143.21;66.86;71913.53;5111993;28;20196;-79
2023/05/19 09:45:27;;;;;;;19.88;10.90;;;;;;;-143.21;64.61;71877.84;5111655;28;20199;-81
2023/05/19 09:47:54;;;;;;;16.63;10.45;;;;;;;-143.21;65.17;71840.19;5111650;28;20241;-79
2023/05/19 09:50:28;;;;;;;16.05;10.80;;;;;;;-143.21;63.40;71796.56;5112041;28;20230;-79
2023/05/19 09:52:55;;;;;;;14.73;10.18;;;;;;;-143.21;63.03;71760.88;5113071;27;20746;-83
2023/05/19 09:58:11;;;;;;;13.15;9.73;;;;;;;-143.21;61.85;71689.47;5111004;28;20192;-85
2023/05/19 10:00:39;;;;;;;19.08;10.38;;;;;;;-143.21;59.55;71661.72;5113078;28;20257;-84
2023/05/19 10:03:06;;;;;;;17.60;11.15;;;;;;;-143.21;59.39;71630.00;5111524;28;20203;-84
2023/05/19 10:05:40;;;;;;;18.90;10.20;;;;;;;-143.21;59.58;71596.28;5108583;28;20198;-80
2023/05/19 10:08:09;;;;;;;14.30;10.02;;;;;;;-143.21;57.45;71566.56;5107921;28;20200;-79
2023/05/19 10:10:37;;;;;;;13.75;10.38;;;;;;;-143.21;56.73;71554.66;5109718;28;20188;-81
2023/05/19 10:13:04;;;;;;;18.52;10.77;;;;;;;-143.21;56.87;71546.72;5109279;28;20203;-79
2023/05/19 10:15:32;;;;;;;19.42;10.48;;;;;;;-143.21;56.97;71526.91;5108501;28;20678;-79
2023/05/19 10:18:00;;;;;;;15.32;10.32;;;;;;;-143.21;56.95;71520.94;5110209;28;20228;-80
2023/05/19 10:20:27;;;;;;;15.82;10.05;;;;;;;-143.21;56.14;71487.25;5113282;28;20561;-79
2023/05/19 10:22:54;;;;;;;17.20;9.98;;;;;;;-143.21;55.40;71471.38;5113914;28;20227;-78
2023/05/19 10:25:21;;;;;;;15.45;10.10;;;;;;;-143.21;54.56;71459.47;5114256;28;20257;-78
2023/05/19 10:27:53;;;;;;;15.68;10.85;;;;;;;-143.21;54.14;71507.06;5113498;27;20196;-79
2023/05/19 10:30:26;;;;;;;15.68;10.52;;;;;;;-143.21;55.36;71580.44;5114261;28;20180;-78
2023/05/19 10:32:57;;;;;;;13.60;10.15;;;;;;;-143.21;53.96;71574.47;5113808;28;20188;-77
2023/05/19 10:35:47;;;;;;;18.42;10.40;;;;;;;-143.21;52.72;71538.78;5114368;28;20253;-79
2023/05/19 10:38:24;;;;;;;14.68;9.48;;;;;;;-143.21;53.00;71511.03;5102650;28;20646;-80
2023/05/19 10:40:58;;;;;;;16.77;10.15;;;;;;;-143.21;53.98;71467.41;5115111;28;20195;-80
2023/05/19 10:43:37;;;;;;;14.35;10.20;;;;;;;-143.21;51.96;71417.84;5114277;28;20196;-78
2023/05/19 10:46:04;;;;;;;12.85;9.90;;;;;;;-143.21;50.55;71405.94;5113726;28;20196;-80
2023/05/19 10:48:35;;;;;;;14.57;10.55;;;;;;;-143.21;51.21;71409.91;5113557;28;20798;-80
2023/05/19 10:51:03;;;;;;;14.13;9.82;;;;;;;-143.21;51.88;71398.03;5113954;28;20192;-79
2023/05/19 10:53:32;;;;;;;13.95;9.65;;;;;;;-143.21;52.01;71372.25;5112885;28;20201;-79
2023/05/19 10:56:02;;;;;;;17.45;10.02;;;;;;;-143.21;50.95;71344.50;5113783;28;20199;-79
2023/05/19 10:58:50;;;;;;;16.05;9.13;;;;;;;-143.21;49.92;71314.75;5113165;28;20214;-79
2023/05/19 11:01:19;;;;;;;14.30;10.60;;;;;;;-143.21;49.97;71300.88;5105412;28;20195;-79
2023/05/19 11:03:50;;;;;;;12.75;9.35;;;;;;;-143.21;49.15;71296.91;5114062;28;20227;-82
2023/05/19 11:06:18;;;;;;;13.93;9.93;;;;;;;-143.21;49.27;71316.75;5113322;28;20194;-80
2023/05/19 11:08:46;;;;;;;14.07;10.20;;;;;;;-143.21;49.58;71288.97;5113021;28;20204;-79
2023/05/19 11:11:15;;;;;;;16.05;9.68;;;;;;;-143.21;48.60;71255.28;5113363;28;20283;-82
2023/05/19 11:13:47;;;;;;;14.40;9.25;;;;;;;-143.21;47.99;71225.53;5114253;28;20192;-80